createdAt,value
2019-04-11T00:01:17.831Z,4.70
2019-04-11T00:03:47.985Z,4.80
2019-04-11T00:06:19.272Z,4.47
2019-04-11T00:08:50.159Z,4.97
2019-04-11T00:11:21.822Z,5.00
2019-04-11T00:13:52.087Z,4.67
2019-04-11T00:16:23.382Z,4.90
2019-04-11T00:18:54.482Z,4.80
2019-04-11T00:21:24.958Z,4.80
2019-04-11T00:23:55.084Z,5.00
2019-04-11T00:26:26.338Z,4.90
2019-04-11T00:28:56.554Z,4.73
2019-04-11T00:31:26.669Z,5.17
2019-04-11T00:33:56.859Z,5.27
2019-04-11T00:36:26.914Z,5.20
2019-04-11T00:38:57.319Z,4.73
2019-04-11T00:41:28.113Z,5.40
2019-04-11T00:43:58.710Z,5.33
2019-04-11T00:46:28.851Z,5.30
2019-04-11T00:48:59.818Z,5.67
2019-04-11T00:51:30.008Z,5.53
2019-04-11T00:54:00.580Z,5.50
2019-04-11T00:56:30.835Z,5.23
2019-04-11T00:59:00.942Z,5.50
2019-04-11T01:01:31.592Z,5.27
2019-04-11T01:04:01.863Z,5.03
2019-04-11T01:06:32.194Z,5.50
2019-04-11T01:09:02.393Z,5.90
2019-04-11T01:11:32.520Z,5.67
2019-04-11T01:14:03.537Z,5.50
2019-04-11T01:16:40.955Z,5.60
2019-04-11T01:19:11.064Z,5.67
2019-04-11T01:21:42.324Z,5.60
2019-04-11T01:24:15.560Z,6.00
2019-04-11T01:26:45.865Z,6.20
2019-04-11T01:29:16.018Z,5.63
2019-04-11T01:31:49.542Z,6.27
2019-04-11T01:34:20.297Z,5.83
2019-04-11T01:36:51.298Z,6.10
2019-04-11T01:39:45.930Z,5.90
2019-04-11T01:42:16.630Z,6.37
2019-04-11T01:44:49.217Z,5.80
2019-04-11T01:47:39.338Z,6.03
2019-04-11T01:50:10.618Z,6.13
2019-04-11T01:52:40.962Z,6.20
2019-04-11T01:55:12.233Z,6.30
2019-04-11T01:57:43.573Z,5.63
2019-04-11T02:00:30.164Z,6.37
2019-04-11T02:03:01.232Z,6.30
2019-04-11T02:05:32.828Z,6.60
2019-04-11T02:08:03.033Z,6.63
2019-04-11T02:10:34.895Z,7.03
2019-04-11T02:13:05.841Z,6.87
2019-04-11T02:15:36.640Z,6.70
2019-04-11T02:18:07.575Z,6.93
2019-04-11T02:20:38.786Z,7.03
2019-04-11T02:23:28.881Z,6.67
2019-04-11T02:26:15.274Z,7.80
2019-04-11T02:28:46.436Z,6.80
2019-04-11T02:31:17.378Z,7.17
2019-04-11T02:33:49.020Z,7.00
2019-04-11T02:36:20.707Z,6.93
2019-04-11T02:38:55.110Z,6.73
2019-04-11T02:41:23.008Z,7.47
2019-04-11T02:43:54.887Z,7.77
2019-04-11T02:46:37.014Z,7.47
2019-04-11T02:48:59.418Z,7.13
2019-04-11T02:51:31.030Z,7.40
2019-04-11T02:54:02.258Z,7.40
2019-04-11T02:56:33.597Z,7.90
2019-04-11T02:59:05.455Z,7.33
2019-04-11T03:01:36.359Z,7.93
2019-04-11T03:04:07.566Z,7.60
2019-04-11T03:06:39.259Z,7.47
2019-04-11T03:09:10.938Z,7.40
2019-04-11T03:11:42.896Z,7.80
2019-04-11T03:14:14.287Z,7.93
2019-04-11T03:16:56.651Z,7.37
2019-04-11T03:19:33.025Z,7.80
2019-04-11T03:21:50.056Z,7.47
2019-04-11T03:24:21.865Z,8.07
2019-04-11T03:26:54.422Z,7.60
2019-04-11T03:29:26.527Z,7.93
2019-04-11T03:32:40.099Z,8.27
2019-04-11T03:37:23.683Z,8.00
2019-04-11T03:39:50.733Z,8.17
2019-04-11T03:42:20.473Z,8.23
2019-04-11T03:44:42.344Z,8.30
2019-04-11T03:47:25.356Z,7.83
2019-04-11T03:49:49.134Z,8.33
2019-04-11T03:52:14.865Z,8.00
2019-04-11T03:54:46.037Z,8.30
2019-04-11T03:57:18.092Z,8.00
2019-04-11T03:59:48.599Z,8.10
2019-04-11T04:02:20.258Z,8.70
2019-04-11T04:04:54.007Z,8.87
2019-04-11T04:07:25.120Z,8.63
2019-04-11T04:09:55.773Z,8.10
2019-04-11T04:12:29.336Z,8.30
2019-04-11T04:15:31.335Z,8.07
2019-04-11T04:18:12.922Z,8.33
2019-04-11T04:21:13.324Z,8.70
2019-04-11T04:23:46.881Z,8.90
2019-04-11T04:26:19.042Z,9.10
2019-04-11T04:28:49.265Z,8.87
2019-04-11T04:31:19.424Z,8.87
2019-04-11T04:33:51.265Z,9.40
2019-04-11T04:36:22.306Z,10.20
2019-04-11T04:38:54.465Z,8.67
2019-04-11T04:41:37.402Z,9.17
2019-04-11T04:44:01.498Z,10.50
2019-04-11T04:46:51.829Z,9.97
2019-04-11T04:49:04.771Z,9.20
2019-04-11T04:51:37.128Z,9.10
2019-04-11T04:54:08.128Z,9.50
2019-04-11T04:56:39.763Z,9.23
2019-04-11T04:59:12.365Z,9.33
2019-04-11T05:01:43.768Z,9.20
2019-04-11T05:04:15.632Z,10.23
2019-04-11T05:06:48.161Z,10.13
2019-04-11T05:09:17.913Z,9.90
2019-04-11T05:11:48.744Z,9.70
2019-04-11T05:14:19.015Z,10.23
2019-04-11T05:16:50.461Z,9.47
2019-04-11T05:19:22.047Z,10.37
2019-04-11T05:21:54.042Z,10.67
2019-04-11T05:24:24.397Z,10.27
2019-04-11T05:26:55.735Z,9.63
2019-04-11T05:29:27.094Z,10.10
2019-04-11T05:31:57.422Z,9.80
2019-04-11T05:34:27.994Z,9.87
2019-04-11T05:36:58.233Z,10.37
2019-04-11T05:39:28.717Z,10.27
2019-04-11T05:41:59.107Z,9.90
2019-04-11T05:44:30.514Z,9.60
2019-04-11T05:47:02.574Z,10.17
2019-04-11T05:49:56.776Z,9.57
2019-04-11T05:52:30.645Z,10.03
2019-04-11T05:55:02.894Z,10.60
2019-04-11T05:57:38.093Z,9.97
2019-04-11T06:00:07.535Z,10.17
2019-04-11T06:02:53.238Z,10.13
2019-04-11T06:05:43.140Z,9.63
2019-04-11T06:08:21.332Z,9.50
2019-04-11T06:11:07.564Z,9.80
2019-04-11T06:13:42.786Z,9.73
2019-04-11T06:16:13.112Z,9.73
2019-04-11T06:19:06.025Z,9.80
2019-04-11T06:21:40.212Z,10.03
2019-04-11T06:24:28.310Z,10.33
2019-04-11T06:27:16.975Z,9.93
2019-04-11T06:30:07.395Z,9.83
2019-04-11T06:33:05.772Z,10.57
2019-04-11T06:35:54.874Z,9.70
2019-04-11T06:38:44.922Z,10.23
2019-04-11T06:41:26.310Z,10.50
2019-04-11T06:44:18.514Z,10.47
2019-04-11T06:47:00.652Z,10.00
2019-04-11T06:49:38.451Z,10.63
2019-04-11T06:52:10.398Z,9.97
2019-04-11T06:55:08.991Z,9.53
2019-04-11T06:57:40.332Z,10.03
2019-04-11T07:00:12.539Z,10.27
2019-04-11T07:02:46.604Z,10.23
2019-04-11T07:05:18.177Z,10.67
2019-04-11T07:07:51.574Z,10.00
2019-04-11T07:10:26.562Z,10.47
2019-04-11T07:13:10.656Z,9.93
2019-04-11T07:15:44.225Z,9.60
2019-04-11T07:18:32.199Z,10.47
2019-04-11T07:21:08.486Z,9.67
2019-04-11T07:23:57.590Z,10.50
2019-04-11T07:26:55.937Z,10.07
2019-04-11T07:29:40.401Z,9.57
2019-04-11T07:32:22.123Z,9.27
2019-04-11T07:35:30.120Z,9.50
2019-04-11T07:38:01.090Z,9.60
2019-04-11T07:41:00.576Z,10.17
2019-04-11T07:43:35.570Z,9.30
2019-04-11T07:46:25.608Z,9.70
2019-04-11T07:49:10.045Z,9.37
2019-04-11T07:52:02.514Z,9.80
2019-04-11T07:54:32.664Z,9.60
2019-04-11T07:57:22.630Z,9.53
2019-04-11T08:00:36.661Z,9.03
2019-04-11T08:03:12.406Z,9.60
2019-04-11T08:06:07.730Z,9.83
2019-04-11T08:09:00.357Z,9.17
2019-04-11T08:11:38.279Z,9.23
2019-04-11T08:14:28.562Z,9.50
2019-04-11T08:17:27.983Z,9.00
2019-04-11T08:20:06.415Z,10.17
2019-04-11T08:22:51.687Z,9.50
2019-04-11T08:25:50.415Z,9.43
2019-04-11T08:28:21.072Z,9.27
2019-04-11T08:31:11.085Z,9.97
2019-04-11T08:33:42.554Z,9.47
2019-04-11T08:36:34.707Z,9.63
2019-04-11T08:39:11.086Z,9.77
2019-04-11T08:41:59.043Z,9.67
2019-04-11T08:44:34.627Z,9.60
2019-04-11T08:47:16.298Z,9.57
2019-04-11T08:49:55.807Z,9.67
2019-04-11T08:52:48.816Z,9.73
2019-04-11T08:55:30.481Z,9.50
2019-04-11T08:58:09.542Z,9.40
2019-04-11T09:00:48.994Z,9.43
2019-04-11T09:03:34.537Z,9.63
2019-04-11T09:06:08.318Z,9.57
2019-04-11T09:08:59.691Z,9.87
2019-04-11T09:11:36.177Z,9.53
2019-04-11T09:14:24.212Z,9.20
2019-04-11T09:17:01.808Z,9.20
2019-04-11T09:19:55.004Z,9.93
2019-04-11T09:22:43.499Z,10.30
2019-04-11T09:25:36.927Z,9.37
2019-04-11T09:28:19.561Z,9.10
2019-04-11T09:31:10.561Z,10.03
2019-04-11T09:34:05.685Z,10.23
2019-04-11T09:36:55.424Z,9.77
2019-04-11T09:40:03.707Z,10.23
2019-04-11T09:42:55.454Z,9.77
2019-04-11T09:45:43.887Z,9.40
2019-04-11T09:48:42.578Z,9.50
2019-04-11T09:51:40.314Z,10.00
2019-04-11T09:54:15.556Z,9.00
2019-04-11T09:57:24.736Z,9.63
2019-04-11T10:00:14.359Z,9.43
2019-04-11T10:02:50.586Z,9.00
2019-04-11T10:05:26.520Z,9.53
2019-04-11T10:08:11.219Z,9.40
2019-04-11T10:10:59.666Z,9.63
2019-04-11T10:13:48.843Z,10.20
2019-04-11T10:16:40.517Z,9.77
2019-04-11T10:19:13.838Z,9.73
2019-04-11T10:21:49.861Z,10.23
2019-04-11T10:24:40.770Z,9.70
2019-04-11T10:27:21.013Z,10.73
2019-04-11T10:30:08.794Z,9.77
2019-04-11T10:32:47.607Z,10.03
2019-04-11T10:35:35.068Z,9.67
2019-04-11T10:38:06.698Z,9.97
2019-04-11T10:40:58.840Z,9.70
2019-04-11T10:43:29.880Z,9.47
2019-04-11T10:46:18.162Z,9.60
2019-04-11T10:48:56.953Z,10.17
2019-04-11T10:51:40.828Z,9.40
2019-04-11T10:54:13.590Z,9.40
2019-04-11T10:57:01.963Z,10.00
2019-04-11T10:59:34.460Z,9.67
2019-04-11T11:02:26.860Z,10.37
2019-04-11T11:04:57.015Z,9.60
2019-04-11T11:07:30.757Z,10.23
2019-04-11T11:10:07.153Z,9.87
2019-04-11T11:13:09.718Z,10.33
2019-04-11T11:15:53.142Z,9.60
2019-04-11T11:19:15.769Z,9.67
2019-04-11T11:21:18.047Z,9.13
2019-04-11T11:24:19.807Z,9.30
2019-04-11T11:26:53.552Z,9.23
2019-04-11T11:29:47.648Z,9.33
2019-04-11T11:32:29.802Z,8.70
2019-04-11T11:35:33.994Z,8.17
2019-04-11T11:38:09.351Z,8.80
2019-04-11T11:41:09.145Z,8.67
2019-04-11T11:43:39.374Z,8.40
2019-04-11T11:46:40.723Z,8.57
2019-04-11T11:49:37.287Z,7.97
2019-04-11T11:52:09.118Z,8.53
2019-04-11T11:54:43.980Z,8.63
2019-04-11T11:57:22.683Z,8.83
2019-04-11T11:59:57.079Z,8.47
2019-04-11T12:02:34.899Z,8.47
2019-04-11T12:05:26.803Z,8.37
2019-04-11T12:08:34.971Z,8.87
2019-04-11T12:11:08.533Z,8.33
2019-04-11T12:13:51.973Z,8.00
2019-04-11T12:16:29.994Z,8.10
2019-04-11T12:19:08.825Z,8.40
2019-04-11T12:21:38.988Z,8.20
2019-04-11T12:24:32.200Z,8.73
2019-04-11T12:27:20.752Z,8.67
2019-04-11T12:30:09.558Z,8.03
2019-04-11T12:32:50.236Z,8.67
2019-04-11T12:35:30.716Z,7.80
2019-04-11T12:38:06.903Z,8.00
2019-04-11T12:40:55.218Z,8.83
2019-04-11T12:43:32.178Z,9.23
2019-04-11T12:46:29.578Z,8.97
2019-04-11T12:48:54.242Z,9.03
2019-04-11T12:51:42.181Z,9.40
2019-04-11T12:54:19.567Z,9.40
2019-04-11T12:57:08.730Z,8.97
2019-04-11T12:59:38.861Z,9.20
2019-04-11T13:02:37.312Z,9.20
2019-04-11T13:05:09.607Z,9.13
2019-04-11T13:07:59.452Z,9.33
2019-04-11T13:10:35.863Z,9.37
2019-04-11T13:13:24.976Z,9.50
2019-04-11T13:16:14.235Z,8.87
2019-04-11T13:19:03.350Z,9.33
2019-04-11T13:21:43.910Z,8.87
2019-04-11T13:24:31.918Z,10.00
2019-04-11T13:27:19.693Z,9.30
2019-04-11T13:30:09.132Z,9.43
2019-04-11T13:32:58.219Z,9.23
2019-04-11T13:35:47.384Z,9.17
2019-04-11T13:38:20.109Z,9.47
2019-04-11T13:41:20.254Z,9.73
2019-04-11T13:43:56.573Z,9.30
2019-04-11T13:46:48.763Z,9.47
2019-04-11T13:49:51.170Z,9.37
2019-04-11T13:52:43.349Z,9.40
2019-04-11T13:55:29.022Z,10.20
2019-04-11T13:58:36.762Z,9.33
2019-04-11T14:01:14.945Z,9.43
2019-04-11T14:04:19.237Z,9.50
2019-04-11T14:06:50.514Z,9.33
2019-04-11T14:09:33.322Z,9.47
2019-04-11T14:12:06.721Z,9.70
2019-04-11T14:14:42.394Z,9.47
2019-04-11T14:17:32.023Z,9.80
2019-04-11T14:20:29.826Z,9.90
2019-04-11T14:23:24.172Z,9.23
2019-04-11T14:26:19.390Z,9.13
2019-04-11T14:29:11.744Z,9.67
2019-04-11T14:32:06.927Z,10.00
2019-04-11T14:34:55.004Z,9.13
2019-04-11T14:37:38.175Z,9.80
2019-04-11T14:40:10.938Z,9.63
2019-04-11T14:43:03.204Z,9.77
2019-04-11T14:46:01.905Z,8.93
2019-04-11T14:48:45.365Z,9.80
2019-04-11T14:51:34.484Z,10.17
2019-04-11T14:54:11.791Z,10.43
2019-04-11T14:56:56.534Z,10.63
2019-04-11T14:59:40.154Z,9.93
2019-04-11T15:02:24.093Z,9.77
2019-04-11T15:05:19.352Z,10.27
2019-04-11T15:07:50.312Z,9.87
2019-04-11T15:10:33.443Z,10.13
2019-04-11T15:13:05.124Z,9.97
2019-04-11T15:15:51.519Z,10.10
2019-04-11T15:18:26.568Z,10.53
2019-04-11T15:21:06.619Z,10.03
2019-04-11T15:23:40.790Z,9.83
2019-04-11T15:26:45.400Z,9.97
2019-04-11T15:29:40.351Z,9.80
2019-04-11T15:32:34.019Z,9.47
2019-04-11T15:35:11.879Z,9.30
2019-04-11T15:37:59.822Z,8.70
2019-04-11T15:40:38.989Z,9.23
2019-04-11T15:43:43.334Z,8.80
2019-04-11T15:46:29.631Z,9.17
2019-04-11T15:49:37.298Z,8.93
2019-04-11T15:52:10.813Z,8.93
2019-04-11T15:54:58.540Z,9.27
2019-04-11T15:57:34.342Z,8.90
2019-04-11T16:00:29.277Z,9.00
2019-04-11T16:03:13.501Z,9.07
2019-04-11T16:06:02.767Z,9.40
2019-04-11T16:08:38.799Z,9.40
2019-04-11T16:11:32.607Z,8.97
2019-04-11T16:14:24.708Z,9.53
2019-04-11T16:17:26.591Z,9.47
2019-04-11T16:20:18.262Z,9.40
2019-04-11T16:23:07.675Z,9.03
2019-04-11T16:25:38.339Z,8.50
2019-04-11T16:28:38.227Z,8.57
2019-04-11T16:31:10.448Z,8.63
2019-04-11T16:33:55.404Z,8.73
2019-04-11T16:36:37.437Z,8.47
2019-04-11T16:39:50.119Z,8.33
2019-04-11T16:42:37.252Z,8.90
2019-04-11T16:45:40.291Z,8.47
2019-04-11T16:48:10.420Z,9.03
2019-04-11T16:50:40.493Z,9.77
2019-04-11T16:53:11.687Z,9.30
2019-04-11T16:55:43.386Z,9.40
2019-04-11T16:58:17.037Z,9.37
2019-04-11T17:00:45.804Z,8.80
2019-04-11T17:03:17.317Z,8.83
2019-04-11T17:06:06.723Z,8.67
2019-04-11T17:08:45.140Z,8.30
2019-04-11T17:11:19.037Z,9.13
2019-04-11T17:13:49.479Z,8.60
2019-04-11T17:16:21.001Z,9.67
2019-04-11T17:18:51.193Z,8.97
2019-04-11T17:21:23.188Z,8.13
2019-04-11T17:23:53.230Z,8.53
2019-04-11T17:26:23.940Z,8.73
2019-04-11T17:28:54.900Z,9.13
2019-04-11T17:31:26.653Z,8.37
2019-04-11T17:34:01.584Z,8.33
2019-04-11T17:36:32.744Z,8.97
2019-04-11T17:39:07.029Z,9.40
2019-04-11T17:41:41.817Z,9.00
2019-04-11T17:44:10.474Z,9.20
2019-04-11T17:46:40.700Z,9.47
2019-04-11T17:49:12.589Z,9.20
2019-04-11T17:51:44.061Z,9.60
2019-04-11T17:54:14.668Z,9.17
2019-04-11T17:56:44.914Z,9.20
2019-04-11T17:59:15.026Z,9.43
2019-04-11T18:01:45.379Z,9.10
2019-04-11T18:04:18.565Z,9.53
2019-04-11T18:06:50.605Z,8.93
2019-04-11T18:09:25.506Z,9.30
2019-04-11T18:11:56.274Z,9.30
2019-04-11T18:14:25.862Z,9.70
2019-04-11T18:16:56.018Z,9.80
2019-04-11T18:19:26.247Z,9.87
2019-04-11T18:22:07.408Z,9.03
2019-04-11T18:24:32.053Z,9.80
2019-04-11T18:27:02.396Z,9.10
2019-04-11T18:29:37.205Z,9.33
2019-04-11T18:32:07.427Z,10.10
2019-04-11T18:34:37.712Z,9.63
2019-04-11T18:37:08.965Z,10.40
2019-04-11T18:39:39.128Z,9.63
2019-04-11T18:42:09.575Z,9.83
2019-04-11T18:44:41.027Z,9.40
2019-04-11T18:47:11.604Z,10.10
2019-04-11T18:49:41.842Z,9.63
2019-04-11T18:52:19.507Z,10.23
2019-04-11T18:54:43.706Z,10.00
2019-04-11T18:57:13.942Z,9.77
2019-04-11T18:59:45.730Z,9.73
2019-04-11T19:02:15.899Z,10.40
2019-04-11T19:04:46.976Z,10.47
2019-04-11T19:07:27.358Z,10.20
2019-04-11T19:09:49.374Z,10.50
2019-04-11T19:12:19.840Z,10.33
2019-04-11T19:14:49.998Z,10.50
2019-04-11T19:17:22.374Z,10.90
2019-04-11T19:19:52.598Z,10.80
2019-04-11T19:22:36.778Z,10.50
2019-04-11T19:24:54.725Z,10.50
2019-04-11T19:27:24.938Z,11.10
2019-04-11T19:29:56.034Z,11.10
2019-04-11T19:32:26.770Z,11.00
2019-04-11T19:34:57.002Z,11.47
2019-04-11T19:37:27.217Z,11.27
2019-04-11T19:39:57.494Z,10.80
2019-04-11T19:42:28.551Z,10.90
2019-04-11T19:44:58.970Z,11.00
2019-04-11T19:47:33.013Z,10.97
2019-04-11T19:50:03.146Z,11.17
2019-04-11T19:52:45.053Z,11.87
2019-04-11T19:55:40.692Z,10.80
2019-04-11T19:58:10.940Z,11.63
2019-04-11T20:00:41.451Z,11.57
2019-04-11T20:03:11.688Z,11.70
2019-04-11T20:05:45.598Z,12.50
2019-04-11T20:08:15.836Z,13.03
2019-04-11T20:10:45.995Z,12.70
2019-04-11T20:13:16.428Z,11.20
2019-04-11T20:15:46.535Z,11.70
2019-04-11T20:18:17.029Z,12.23
2019-04-11T20:20:47.231Z,11.87
2019-04-11T20:23:17.446Z,11.83
2019-04-11T20:25:49.698Z,12.57
2019-04-11T20:28:20.724Z,12.53
2019-04-11T20:30:51.210Z,11.53
2019-04-11T20:33:26.879Z,12.40
2019-04-11T20:35:56.209Z,12.73
2019-04-11T20:38:26.418Z,12.63
2019-04-11T20:40:56.555Z,12.90
2019-04-11T20:43:26.715Z,12.40
2019-04-11T20:45:58.541Z,12.90
2019-04-11T20:48:35.068Z,13.00
2019-04-11T20:51:03.948Z,12.53
2019-04-11T20:53:37.502Z,13.27
2019-04-11T20:56:09.557Z,13.37
2019-04-11T20:58:40.268Z,12.80
2019-04-11T21:01:10.518Z,13.40
2019-04-11T21:03:41.040Z,13.47
2019-04-11T21:06:11.156Z,13.30
2019-04-11T21:08:41.218Z,13.80
2019-04-11T21:11:11.384Z,13.90
2019-04-11T21:13:41.531Z,13.07
2019-04-11T21:16:11.758Z,14.87
2019-04-11T21:18:41.890Z,13.70
2019-04-11T21:21:12.032Z,13.70
2019-04-11T21:23:54.929Z,13.17
2019-04-11T21:26:28.738Z,13.37
2019-04-11T21:28:59.021Z,13.50
2019-04-11T21:31:31.234Z,13.93
2019-04-11T21:34:02.977Z,14.03
2019-04-11T21:36:33.444Z,14.43
2019-04-11T21:39:04.993Z,13.50
2019-04-11T21:41:36.286Z,13.77
2019-04-11T21:44:07.096Z,13.77
2019-04-11T21:46:38.171Z,12.87
2019-04-11T21:49:09.202Z,13.47
2019-04-11T21:51:42.339Z,13.07
2019-04-11T21:54:14.741Z,12.70
2019-04-11T21:56:49.269Z,13.93
2019-04-11T21:59:20.028Z,13.40
2019-04-11T22:01:48.566Z,13.50
2019-04-11T22:04:18.605Z,13.43
2019-04-11T22:06:50.439Z,13.93
2019-04-11T22:09:21.284Z,14.40
2019-04-11T22:11:51.527Z,13.33
2019-04-11T22:14:21.682Z,13.80
2019-04-11T22:16:55.034Z,13.10
2019-04-11T22:19:25.382Z,13.57
2019-04-11T22:21:55.625Z,12.83
2019-04-11T22:24:25.721Z,13.47
2019-04-11T22:26:56.519Z,14.13
2019-04-11T22:29:26.550Z,12.60
2019-04-11T22:31:56.732Z,13.00
2019-04-11T22:34:37.352Z,13.57
2019-04-11T22:37:07.487Z,13.37
2019-04-11T22:39:37.793Z,13.60
2019-04-11T22:42:19.743Z,14.33
2019-04-11T22:44:49.996Z,13.93
2019-04-11T22:47:20.222Z,14.10
2019-04-11T22:49:50.280Z,14.23
2019-04-11T22:52:20.339Z,14.37
2019-04-11T22:54:50.609Z,14.10
2019-04-11T22:57:20.884Z,14.40
2019-04-11T22:59:50.945Z,14.83
2019-04-11T23:02:28.157Z,14.53
2019-04-11T23:04:58.230Z,14.97
2019-04-11T23:07:28.385Z,14.80
2019-04-11T23:09:58.592Z,15.57
2019-04-11T23:12:28.975Z,14.70
2019-04-11T23:14:59.021Z,14.57
2019-04-11T23:17:29.231Z,15.10
2019-04-11T23:19:59.347Z,14.80
2019-04-11T23:22:30.057Z,14.77
2019-04-11T23:25:00.143Z,15.37
2019-04-11T23:27:32.387Z,15.13
2019-04-11T23:30:02.768Z,14.80
2019-04-11T23:32:34.918Z,15.33
2019-04-11T23:35:05.350Z,15.20
2019-04-11T23:37:51.039Z,15.57
2019-04-11T23:40:22.503Z,15.10
2019-04-11T23:42:53.015Z,15.37
2019-04-11T23:45:25.893Z,15.67
2019-04-11T23:47:55.949Z,15.43
2019-04-11T23:50:26.197Z,14.90
2019-04-11T23:52:57.878Z,15.77
2019-04-11T23:55:30.804Z,15.70
2019-04-11T23:58:01.770Z,14.60
